Amanda — XPE7573 — position and weather

sailwx.info

Track history (hours):
 
Tides and Currents Weather Stations Pressure Air Temp Water Temp Dewpoint Dewpoint Depression Visibility Wind Speed Wind Dir Waves Ship Positions

Amanda

Last reported at 2017-Sep-23 19:57 UTC. Time now 2017-Oct-19 08:52 UTC.
Position N 39°28' W 075°55'.
Warning: this ship's position is 25 days out of date.

Length 14 m.

Type: Sailing vessel. MMSI: 219021272.

Date/timePositionNaut miles runAvg speedWind from/ knotsBaromVisibWave heightAir tempDewpointWater temp
2017-Sep-23 19:57N 39°28' W 075°55'86 2.1
2017-Sep-22 02:00N 39°40' W 074°04'3 6.8
2017-Sep-22 01:30N 39°43' W 074°02'3 6.9
2017-Sep-22 01:00N 39°46' W 074°01'49 6.6
2017-Sep-21 17:31N 40°36' W 074°03'0 8.3
2017-Sep-21 17:28N 40°36' W 074°03'3 7.3
2017-Sep-21 17:00N 40°40' W 074°03'3 6.4
2017-Sep-21 16:30N 40°43' W 074°02'0 0.8
2017-Sep-21 16:00N 40°43' W 074°02'0 0.1
2017-Sep-21 15:30N 40°43' W 074°03'  
2017-Sep-14 22:47N 40°43' W 074°03'0 0.2
2017-Sep-14 22:30N 40°43' W 074°03'3 5.8
2017-Sep-14 21:59N 40°43' W 073°59'  
Track history (hours):
 
Tides and Currents Weather Stations Pressure Air Temp Water Temp Dewpoint Dewpoint Depression Visibility Wind Speed Wind Dir Waves Ship Positions

Amanda

Last reported at 2017-Sep-23 19:57 UTC. Time now 2017-Oct-19 08:52 UTC.
Position N 39°28' W 075°55'.
Warning: this ship's position is 25 days out of date.

Length 14 m.

Type: Sailing vessel. MMSI: 219021272.

Date/timePositionNaut miles runAvg speedWind from/ knotsBaromVisibWave heightAir tempDewpointWater temp
2017-Sep-23 19:57N 39°28' W 075°55'86 2.1
2017-Sep-22 02:00N 39°40' W 074°04'3 6.8
2017-Sep-22 01:30N 39°43' W 074°02'3 6.9
2017-Sep-22 01:00N 39°46' W 074°01'49 6.6
2017-Sep-21 17:31N 40°36' W 074°03'0 8.3
2017-Sep-21 17:28N 40°36' W 074°03'3 7.3
2017-Sep-21 17:00N 40°40' W 074°03'3 6.4
2017-Sep-21 16:30N 40°43' W 074°02'0 0.8
2017-Sep-21 16:00N 40°43' W 074°02'0 0.1
2017-Sep-21 15:30N 40°43' W 074°03'  
2017-Sep-14 22:47N 40°43' W 074°03'0 0.2
2017-Sep-14 22:30N 40°43' W 074°03'3 5.8
2017-Sep-14 21:59N 40°43' W 073°59'  

Dump ship's entire track history